This is the latest recevied weather packets stored in our database for station/object 9W2UHF-10. If no packets are shown the sender has not sent any weather packets the latest 10 day(s).
| Time | Temp. | Humidity | Pressure | Rain* | Wind** | Luminosity | Snow |
|---|---|---|---|---|---|---|---|
| 1777700969 | 33.89° C | 54% | 1010.5 hPa | - | - | - | - |
| 1777699769 | 33.89° C | 56% | 1010.9 hPa | - | - | - | - |
| 1777698569 | 33.33° C | 57% | 1011.2 hPa | - | - | - | - |
| 1777697369 | 32.78° C | 59% | 1011.5 hPa | - | - | - | - |
| 1777696169 | 32.22° C | 61% | 1011.9 hPa | - | - | - | - |
| 1777694968 | 32.22° C | 62% | 1012.2 hPa | - | - | - | - |
| 1777693768 | 32.22° C | 62% | 1012.5 hPa | - | - | - | - |
| 1777692568 | 31.67° C | 64% | 1012.7 hPa | - | - | - | - |
| 1777691368 | 31.67° C | 66% | 1012.6 hPa | - | - | - | - |
| 1777690167 | 31.11° C | 66% | 1012.6 hPa | - | - | - | - |
| 1777688967 | 30.56° C | 67% | 1012.7 hPa | - | - | - | - |
| 1777672166 | 29.44° C | 72% | 1009.9 hPa | - | - | - | - |
| 1777670966 | 29.44° C | 71% | 1009.9 hPa | - | - | - | - |
| 1777669868 | 29.44° C | 71% | 1010 hPa | - | - | - | - |
| 1777667482 | 30° C | 72% | 1010.3 hPa | - | - | - | - |
| 1777667365 | 30° C | 72% | 1010.3 hPa | - | - | - | - |
| 1777666165 | 30° C | 72% | 1010.4 hPa | - | - | - | - |
| 1777661375 | 30° C | 71% | 1011.2 hPa | - | - | - | - |
| 1777660175 | 30° C | 70% | 1011.8 hPa | - | - | - | - |
| 1777659054 | 30° C | 70% | 1012 hPa | - | - | - | - |
| 1777658975 | 30° C | 70% | 1012 hPa | - | - | - | - |
| 1777657775 | 30° C | 71% | 1012.2 hPa | - | - | - | - |
| 1777649374 | 30.56° C | 70% | 1012.3 hPa | - | - | - | - |
| 1777648174 | 30.56° C | 69% | 1011.7 hPa | - | - | - | - |
| 1777645774 | 30.56° C | 73% | 1011.9 hPa | - | - | - | - |
* Rain since midnight (hover to see other rain measurements)
** Current wind speed in m/s (hover to see current wind gust speed)